sensor_id;sensor_type;location;lat;lon;timestamp;P1;durP1;ratioP1;P2;durP2;ratioP2
74044;SDS011;62389;51.412;5.436;2023-07-13T00:01:27;3.85;;;1.17;;
74044;SDS011;62389;51.412;5.436;2023-07-13T00:03:52;5.10;;;1.40;;
74044;SDS011;62389;51.412;5.436;2023-07-13T00:06:18;5.93;;;1.15;;
74044;SDS011;62389;51.412;5.436;2023-07-13T00:08:45;4.18;;;1.35;;
74044;SDS011;62389;51.412;5.436;2023-07-13T00:11:10;4.07;;;1.40;;
74044;SDS011;62389;51.412;5.436;2023-07-13T00:13:36;5.43;;;1.58;;
74044;SDS011;62389;51.412;5.436;2023-07-13T00:16:03;3.25;;;1.33;;
74044;SDS011;62389;51.412;5.436;2023-07-13T00:18:28;4.57;;;1.50;;
74044;SDS011;62389;51.412;5.436;2023-07-13T00:20:55;4.18;;;1.20;;
74044;SDS011;62389;51.412;5.436;2023-07-13T00:23:20;4.78;;;1.42;;
74044;SDS011;62389;51.412;5.436;2023-07-13T00:25:46;4.80;;;1.45;;
74044;SDS011;62389;51.412;5.436;2023-07-13T00:28:11;4.25;;;1.33;;
74044;SDS011;62389;51.412;5.436;2023-07-13T00:30:37;7.03;;;1.63;;
74044;SDS011;62389;51.412;5.436;2023-07-13T00:33:02;3.78;;;1.40;;
74044;SDS011;62389;51.412;5.436;2023-07-13T00:35:30;4.30;;;1.30;;
74044;SDS011;62389;51.412;5.436;2023-07-13T00:37:56;2.75;;;1.20;;
74044;SDS011;62389;51.412;5.436;2023-07-13T00:40:21;3.45;;;1.23;;
74044;SDS011;62389;51.412;5.436;2023-07-13T00:42:46;6.20;;;1.92;;
74044;SDS011;62389;51.412;5.436;2023-07-13T00:47:38;2.80;;;1.55;;
74044;SDS011;62389;51.412;5.436;2023-07-13T00:50:04;2.40;;;1.23;;
74044;SDS011;62389;51.412;5.436;2023-07-13T00:52:40;3.40;;;1.30;;
74044;SDS011;62389;51.412;5.436;2023-07-13T00:55:08;5.40;;;1.40;;
74044;SDS011;62389;51.412;5.436;2023-07-13T00:57:34;13.20;;;1.48;;
74044;SDS011;62389;51.412;5.436;2023-07-13T01:00:00;4.18;;;1.70;;
74044;SDS011;62389;51.412;5.436;2023-07-13T01:02:31;4.20;;;1.33;;
74044;SDS011;62389;51.412;5.436;2023-07-13T01:04:58;4.47;;;1.50;;
74044;SDS011;62389;51.412;5.436;2023-07-13T01:07:23;6.30;;;1.42;;
74044;SDS011;62389;51.412;5.436;2023-07-13T01:09:49;5.05;;;1.42;;
74044;SDS011;62389;51.412;5.436;2023-07-13T01:12:14;7.15;;;2.08;;
74044;SDS011;62389;51.412;5.436;2023-07-13T01:14:40;4.68;;;1.63;;
74044;SDS011;62389;51.412;5.436;2023-07-13T01:17:07;3.88;;;1.67;;
74044;SDS011;62389;51.412;5.436;2023-07-13T01:19:37;5.97;;;1.48;;
74044;SDS011;62389;51.412;5.436;2023-07-13T01:22:17;7.18;;;2.60;;
74044;SDS011;62389;51.412;5.436;2023-07-13T01:24:45;3.80;;;1.42;;
74044;SDS011;62389;51.412;5.436;2023-07-13T01:27:13;7.50;;;1.85;;
74044;SDS011;62389;51.412;5.436;2023-07-13T01:29:40;5.32;;;1.38;;
74044;SDS011;62389;51.412;5.436;2023-07-13T01:32:15;5.25;;;1.23;;
74044;SDS011;62389;51.412;5.436;2023-07-13T01:34:47;5.65;;;1.63;;
74044;SDS011;62389;51.412;5.436;2023-07-13T01:37:13;7.35;;;1.60;;
74044;SDS011;62389;51.412;5.436;2023-07-13T01:39:39;6.47;;;1.40;;
74044;SDS011;62389;51.412;5.436;2023-07-13T01:42:04;5.63;;;1.52;;
74044;SDS011;62389;51.412;5.436;2023-07-13T01:44:30;4.18;;;1.63;;
74044;SDS011;62389;51.412;5.436;2023-07-13T01:46:55;4.95;;;1.63;;
74044;SDS011;62389;51.412;5.436;2023-07-13T01:49:21;4.25;;;1.48;;
74044;SDS011;62389;51.412;5.436;2023-07-13T01:51:46;5.38;;;1.67;;
74044;SDS011;62389;51.412;5.436;2023-07-13T01:54:12;5.32;;;1.52;;
74044;SDS011;62389;51.412;5.436;2023-07-13T01:56:37;3.47;;;1.73;;
74044;SDS011;62389;51.412;5.436;2023-07-13T01:59:02;3.17;;;1.50;;
74044;SDS011;62389;51.412;5.436;2023-07-13T02:01:28;9.38;;;1.90;;
74044;SDS011;62389;51.412;5.436;2023-07-13T02:03:53;5.95;;;1.48;;
74044;SDS011;62389;51.412;5.436;2023-07-13T02:06:18;5.40;;;1.60;;
74044;SDS011;62389;51.412;5.436;2023-07-13T02:08:44;4.53;;;1.63;;
74044;SDS011;62389;51.412;5.436;2023-07-13T02:11:09;8.23;;;2.53;;
74044;SDS011;62389;51.412;5.436;2023-07-13T02:13:34;6.15;;;1.75;;
74044;SDS011;62389;51.412;5.436;2023-07-13T02:16:00;5.75;;;1.58;;
74044;SDS011;62389;51.412;5.436;2023-07-13T02:18:26;6.55;;;1.70;;
74044;SDS011;62389;51.412;5.436;2023-07-13T02:20:51;8.13;;;1.65;;
74044;SDS011;62389;51.412;5.436;2023-07-13T02:23:17;5.85;;;1.70;;
74044;SDS011;62389;51.412;5.436;2023-07-13T02:25:42;5.88;;;1.75;;
74044;SDS011;62389;51.412;5.436;2023-07-13T02:28:07;9.35;;;1.83;;
74044;SDS011;62389;51.412;5.436;2023-07-13T02:30:33;4.47;;;1.65;;
74044;SDS011;62389;51.412;5.436;2023-07-13T02:32:59;6.20;;;1.83;;
74044;SDS011;62389;51.412;5.436;2023-07-13T02:35:25;5.10;;;1.75;;
74044;SDS011;62389;51.412;5.436;2023-07-13T02:37:50;6.05;;;1.63;;
74044;SDS011;62389;51.412;5.436;2023-07-13T02:40:16;8.20;;;2.53;;
74044;SDS011;62389;51.412;5.436;2023-07-13T02:42:41;4.18;;;1.63;;
74044;SDS011;62389;51.412;5.436;2023-07-13T02:45:07;5.68;;;1.90;;
74044;SDS011;62389;51.412;5.436;2023-07-13T02:47:34;8.23;;;2.03;;
74044;SDS011;62389;51.412;5.436;2023-07-13T02:50:01;8.00;;;3.08;;
74044;SDS011;62389;51.412;5.436;2023-07-13T02:52:26;3.65;;;1.60;;
74044;SDS011;62389;51.412;5.436;2023-07-13T02:54:53;6.30;;;1.60;;
74044;SDS011;62389;51.412;5.436;2023-07-13T02:57:18;7.28;;;1.85;;
74044;SDS011;62389;51.412;5.436;2023-07-13T02:59:44;7.57;;;2.00;;
74044;SDS011;62389;51.412;5.436;2023-07-13T03:02:09;8.80;;;2.13;;
74044;SDS011;62389;51.412;5.436;2023-07-13T03:04:35;6.50;;;1.63;;
74044;SDS011;62389;51.412;5.436;2023-07-13T03:07:02;7.97;;;2.20;;
74044;SDS011;62389;51.412;5.436;2023-07-13T03:09:27;7.90;;;1.88;;
74044;SDS011;62389;51.412;5.436;2023-07-13T03:11:53;4.28;;;1.85;;
74044;SDS011;62389;51.412;5.436;2023-07-13T03:14:20;4.72;;;1.48;;
74044;SDS011;62389;51.412;5.436;2023-07-13T03:16:46;6.50;;;2.10;;
74044;SDS011;62389;51.412;5.436;2023-07-13T03:19:11;7.28;;;1.83;;
74044;SDS011;62389;51.412;5.436;2023-07-13T03:21:37;5.28;;;1.63;;
74044;SDS011;62389;51.412;5.436;2023-07-13T03:24:02;6.57;;;1.88;;
74044;SDS011;62389;51.412;5.436;2023-07-13T03:26:28;6.35;;;2.10;;
74044;SDS011;62389;51.412;5.436;2023-07-13T03:28:53;3.90;;;1.83;;
74044;SDS011;62389;51.412;5.436;2023-07-13T03:31:20;6.38;;;2.03;;
74044;SDS011;62389;51.412;5.436;2023-07-13T03:33:47;9.30;;;2.60;;
74044;SDS011;62389;51.412;5.436;2023-07-13T03:36:17;9.20;;;2.90;;
74044;SDS011;62389;51.412;5.436;2023-07-13T03:38:46;7.75;;;2.13;;
74044;SDS011;62389;51.412;5.436;2023-07-13T03:41:15;8.13;;;2.25;;
74044;SDS011;62389;51.412;5.436;2023-07-13T03:43:41;5.93;;;2.00;;
74044;SDS011;62389;51.412;5.436;2023-07-13T03:46:07;5.95;;;2.05;;
74044;SDS011;62389;51.412;5.436;2023-07-13T03:48:33;6.50;;;1.95;;
74044;SDS011;62389;51.412;5.436;2023-07-13T03:50:58;6.90;;;2.13;;
74044;SDS011;62389;51.412;5.436;2023-07-13T03:53:24;4.75;;;2.22;;
74044;SDS011;62389;51.412;5.436;2023-07-13T03:55:49;7.25;;;2.78;;
74044;SDS011;62389;51.412;5.436;2023-07-13T04:01:00;7.75;;;2.65;;
74044;SDS011;62389;51.412;5.436;2023-07-13T04:03:28;8.20;;;2.13;;
74044;SDS011;62389;51.412;5.436;2023-07-13T04:05:57;6.90;;;2.55;;
74044;SDS011;62389;51.412;5.436;2023-07-13T04:08:25;9.70;;;2.40;;
74044;SDS011;62389;51.412;5.436;2023-07-13T04:10:52;9.43;;;2.90;;
74044;SDS011;62389;51.412;5.436;2023-07-13T04:13:17;8.15;;;2.95;;
74044;SDS011;62389;51.412;5.436;2023-07-13T04:15:43;7.85;;;2.42;;
74044;SDS011;62389;51.412;5.436;2023-07-13T04:18:08;10.40;;;3.88;;
74044;SDS011;62389;51.412;5.436;2023-07-13T04:20:34;10.32;;;2.95;;
74044;SDS011;62389;51.412;5.436;2023-07-13T04:22:59;15.35;;;3.30;;
74044;SDS011;62389;51.412;5.436;2023-07-13T04:25:24;7.13;;;2.72;;
74044;SDS011;62389;51.412;5.436;2023-07-13T04:27:50;8.75;;;2.80;;
74044;SDS011;62389;51.412;5.436;2023-07-13T04:30:15;10.07;;;2.97;;
74044;SDS011;62389;51.412;5.436;2023-07-13T04:32:41;11.65;;;3.10;;
74044;SDS011;62389;51.412;5.436;2023-07-13T04:35:06;9.25;;;3.28;;
74044;SDS011;62389;51.412;5.436;2023-07-13T04:37:32;9.60;;;3.00;;
74044;SDS011;62389;51.412;5.436;2023-07-13T04:39:57;10.75;;;3.22;;
74044;SDS011;62389;51.412;5.436;2023-07-13T04:42:22;11.18;;;3.40;;
74044;SDS011;62389;51.412;5.436;2023-07-13T04:44:48;14.23;;;4.75;;
74044;SDS011;62389;51.412;5.436;2023-07-13T04:47:15;11.52;;;3.80;;
74044;SDS011;62389;51.412;5.436;2023-07-13T04:49:40;11.65;;;3.80;;
74044;SDS011;62389;51.412;5.436;2023-07-13T04:52:06;11.68;;;3.53;;
74044;SDS011;62389;51.412;5.436;2023-07-13T04:54:32;10.45;;;3.97;;
74044;SDS011;62389;51.412;5.436;2023-07-13T04:56:58;13.73;;;4.20;;
74044;SDS011;62389;51.412;5.436;2023-07-13T04:59:24;17.55;;;4.30;;
74044;SDS011;62389;51.412;5.436;2023-07-13T05:01:49;13.32;;;3.90;;
74044;SDS011;62389;51.412;5.436;2023-07-13T05:04:15;16.55;;;4.93;;
74044;SDS011;62389;51.412;5.436;2023-07-13T05:06:40;13.20;;;4.85;;
74044;SDS011;62389;51.412;5.436;2023-07-13T05:09:05;19.85;;;5.78;;
74044;SDS011;62389;51.412;5.436;2023-07-13T05:11:32;15.75;;;4.95;;
74044;SDS011;62389;51.412;5.436;2023-07-13T05:13:57;13.82;;;5.03;;
74044;SDS011;62389;51.412;5.436;2023-07-13T05:16:23;14.40;;;4.63;;
74044;SDS011;62389;51.412;5.436;2023-07-13T05:18:48;14.57;;;5.60;;
74044;SDS011;62389;51.412;5.436;2023-07-13T05:21:13;14.40;;;4.53;;
74044;SDS011;62389;51.412;5.436;2023-07-13T05:23:39;13.55;;;4.28;;
74044;SDS011;62389;51.412;5.436;2023-07-13T05:26:06;14.05;;;4.85;;
74044;SDS011;62389;51.412;5.436;2023-07-13T05:28:32;15.98;;;4.85;;
74044;SDS011;62389;51.412;5.436;2023-07-13T05:30:57;12.32;;;5.03;;
74044;SDS011;62389;51.412;5.436;2023-07-13T05:33:23;15.43;;;5.05;;
74044;SDS011;62389;51.412;5.436;2023-07-13T05:35:49;15.20;;;4.47;;
74044;SDS011;62389;51.412;5.436;2023-07-13T05:38:15;16.48;;;3.90;;
74044;SDS011;62389;51.412;5.436;2023-07-13T05:40:44;9.85;;;4.38;;
74044;SDS011;62389;51.412;5.436;2023-07-13T05:43:10;11.50;;;3.85;;
74044;SDS011;62389;51.412;5.436;2023-07-13T05:45:35;14.50;;;4.80;;
74044;SDS011;62389;51.412;5.436;2023-07-13T05:48:01;11.82;;;4.38;;
74044;SDS011;62389;51.412;5.436;2023-07-13T05:50:26;13.85;;;5.22;;
74044;SDS011;62389;51.412;5.436;2023-07-13T05:52:52;15.75;;;4.90;;
74044;SDS011;62389;51.412;5.436;2023-07-13T05:55:18;17.48;;;5.22;;
74044;SDS011;62389;51.412;5.436;2023-07-13T05:57:44;15.70;;;5.03;;
74044;SDS011;62389;51.412;5.436;2023-07-13T06:00:09;15.75;;;5.30;;
74044;SDS011;62389;51.412;5.436;2023-07-13T06:02:35;14.05;;;5.22;;
74044;SDS011;62389;51.412;5.436;2023-07-13T06:05:00;14.07;;;5.90;;
74044;SDS011;62389;51.412;5.436;2023-07-13T06:07:26;13.55;;;5.57;;
74044;SDS011;62389;51.412;5.436;2023-07-13T06:09:51;10.60;;;4.80;;
74044;SDS011;62389;51.412;5.436;2023-07-13T06:12:16;17.33;;;5.47;;
74044;SDS011;62389;51.412;5.436;2023-07-13T06:14:42;12.70;;;5.00;;
74044;SDS011;62389;51.412;5.436;2023-07-13T06:17:07;15.45;;;5.47;;
74044;SDS011;62389;51.412;5.436;2023-07-13T06:19:33;15.38;;;4.68;;
74044;SDS011;62389;51.412;5.436;2023-07-13T06:21:59;14.75;;;5.43;;
74044;SDS011;62389;51.412;5.436;2023-07-13T06:24:24;19.83;;;6.07;;
74044;SDS011;62389;51.412;5.436;2023-07-13T06:26:50;15.38;;;5.38;;
74044;SDS011;62389;51.412;5.436;2023-07-13T06:29:16;16.20;;;5.97;;
74044;SDS011;62389;51.412;5.436;2023-07-13T06:31:41;12.77;;;5.32;;
74044;SDS011;62389;51.412;5.436;2023-07-13T06:34:07;13.70;;;6.25;;
74044;SDS011;62389;51.412;5.436;2023-07-13T06:36:32;18.85;;;6.07;;
74044;SDS011;62389;51.412;5.436;2023-07-13T06:38:57;18.33;;;5.72;;
74044;SDS011;62389;51.412;5.436;2023-07-13T06:41:23;16.17;;;5.53;;
74044;SDS011;62389;51.412;5.436;2023-07-13T06:43:51;13.75;;;5.60;;
74044;SDS011;62389;51.412;5.436;2023-07-13T06:46:16;18.45;;;6.18;;
74044;SDS011;62389;51.412;5.436;2023-07-13T06:48:42;15.10;;;4.97;;
74044;SDS011;62389;51.412;5.436;2023-07-13T06:51:07;16.75;;;5.80;;
74044;SDS011;62389;51.412;5.436;2023-07-13T06:53:33;17.08;;;5.15;;
74044;SDS011;62389;51.412;5.436;2023-07-13T06:55:58;13.65;;;5.63;;
74044;SDS011;62389;51.412;5.436;2023-07-13T06:58:24;17.02;;;5.47;;
74044;SDS011;62389;51.412;5.436;2023-07-13T07:00:52;17.75;;;6.05;;
74044;SDS011;62389;51.412;5.436;2023-07-13T07:03:18;20.92;;;5.45;;
74044;SDS011;62389;51.412;5.436;2023-07-13T07:05:43;17.02;;;5.68;;
74044;SDS011;62389;51.412;5.436;2023-07-13T07:08:09;20.75;;;6.15;;
74044;SDS011;62389;51.412;5.436;2023-07-13T07:10:34;14.65;;;5.50;;
74044;SDS011;62389;51.412;5.436;2023-07-13T07:13:00;14.68;;;5.05;;
74044;SDS011;62389;51.412;5.436;2023-07-13T07:15:26;12.77;;;4.75;;
74044;SDS011;62389;51.412;5.436;2023-07-13T07:17:52;16.70;;;5.40;;
74044;SDS011;62389;51.412;5.436;2023-07-13T07:20:17;13.48;;;5.22;;
74044;SDS011;62389;51.412;5.436;2023-07-13T07:22:42;13.77;;;4.88;;
74044;SDS011;62389;51.412;5.436;2023-07-13T07:25:08;11.02;;;5.18;;
74044;SDS011;62389;51.412;5.436;2023-07-13T07:27:33;13.63;;;4.97;;
74044;SDS011;62389;51.412;5.436;2023-07-13T07:29:59;12.80;;;5.38;;
74044;SDS011;62389;51.412;5.436;2023-07-13T07:32:25;14.13;;;4.55;;
74044;SDS011;62389;51.412;5.436;2023-07-13T07:34:50;11.90;;;4.30;;
74044;SDS011;62389;51.412;5.436;2023-07-13T07:37:16;11.43;;;4.65;;
74044;SDS011;62389;51.412;5.436;2023-07-13T07:39:42;9.20;;;4.28;;
74044;SDS011;62389;51.412;5.436;2023-07-13T07:42:08;12.05;;;4.30;;
74044;SDS011;62389;51.412;5.436;2023-07-13T07:44:34;12.57;;;4.63;;
74044;SDS011;62389;51.412;5.436;2023-07-13T07:47:00;13.07;;;4.93;;
74044;SDS011;62389;51.412;5.436;2023-07-13T07:49:26;13.88;;;4.45;;
74044;SDS011;62389;51.412;5.436;2023-07-13T07:51:51;9.43;;;4.30;;
74044;SDS011;62389;51.412;5.436;2023-07-13T07:54:17;15.68;;;4.45;;
74044;SDS011;62389;51.412;5.436;2023-07-13T07:56:42;9.13;;;4.07;;
74044;SDS011;62389;51.412;5.436;2023-07-13T07:59:08;9.57;;;3.85;;
74044;SDS011;62389;51.412;5.436;2023-07-13T08:01:33;8.00;;;3.90;;
74044;SDS011;62389;51.412;5.436;2023-07-13T08:03:59;13.00;;;4.05;;
74044;SDS011;62389;51.412;5.436;2023-07-13T08:06:24;12.43;;;5.07;;
74044;SDS011;62389;51.412;5.436;2023-07-13T08:08:49;10.52;;;3.80;;
74044;SDS011;62389;51.412;5.436;2023-07-13T08:11:16;10.73;;;4.20;;
74044;SDS011;62389;51.412;5.436;2023-07-13T08:13:41;13.05;;;3.88;;
74044;SDS011;62389;51.412;5.436;2023-07-13T08:16:07;14.25;;;4.40;;
74044;SDS011;62389;51.412;5.436;2023-07-13T08:18:32;7.47;;;3.30;;
74044;SDS011;62389;51.412;5.436;2023-07-13T08:20:58;9.63;;;3.60;;
74044;SDS011;62389;51.412;5.436;2023-07-13T08:23:24;17.92;;;4.13;;
74044;SDS011;62389;51.412;5.436;2023-07-13T08:25:53;11.23;;;3.53;;
74044;SDS011;62389;51.412;5.436;2023-07-13T08:28:20;11.23;;;3.83;;
74044;SDS011;62389;51.412;5.436;2023-07-13T08:30:46;9.02;;;4.10;;
74044;SDS011;62389;51.412;5.436;2023-07-13T08:33:15;9.85;;;4.22;;
74044;SDS011;62389;51.412;5.436;2023-07-13T08:38:06;10.52;;;3.35;;
74044;SDS011;62389;51.412;5.436;2023-07-13T08:40:31;7.43;;;3.22;;
74044;SDS011;62389;51.412;5.436;2023-07-13T08:42:59;9.63;;;3.50;;
74044;SDS011;62389;51.412;5.436;2023-07-13T08:45:43;9.07;;;3.78;;
74044;SDS011;62389;51.412;5.436;2023-07-13T08:48:35;7.97;;;2.88;;
74044;SDS011;62389;51.412;5.436;2023-07-13T08:51:29;7.85;;;3.08;;
74044;SDS011;62389;51.412;5.436;2023-07-13T08:54:14;11.75;;;3.42;;
74044;SDS011;62389;51.412;5.436;2023-07-13T08:56:54;7.85;;;3.55;;
74044;SDS011;62389;51.412;5.436;2023-07-13T08:59:24;10.05;;;3.17;;
74044;SDS011;62389;51.412;5.436;2023-07-13T09:04:46;8.88;;;3.58;;
74044;SDS011;62389;51.412;5.436;2023-07-13T09:07:33;7.32;;;2.75;;
74044;SDS011;62389;51.412;5.436;2023-07-13T09:15:27;9.52;;;2.83;;
74044;SDS011;62389;51.412;5.436;2023-07-13T09:18:00;4.60;;;2.33;;
74044;SDS011;62389;51.412;5.436;2023-07-13T09:20:43;8.00;;;3.20;;
74044;SDS011;62389;51.412;5.436;2023-07-13T09:23:17;7.15;;;2.70;;
74044;SDS011;62389;51.412;5.436;2023-07-13T09:25:53;9.63;;;2.35;;
74044;SDS011;62389;51.412;5.436;2023-07-13T09:28:26;7.38;;;2.75;;
74044;SDS011;62389;51.412;5.436;2023-07-13T09:30:58;7.25;;;2.70;;
74044;SDS011;62389;51.412;5.436;2023-07-13T09:33:25;7.45;;;2.00;;
74044;SDS011;62389;51.412;5.436;2023-07-13T09:35:54;4.25;;;2.20;;
74044;SDS011;62389;51.412;5.436;2023-07-13T09:38:21;6.00;;;2.22;;
74044;SDS011;62389;51.412;5.436;2023-07-13T09:44:12;7.15;;;2.92;;
74044;SDS011;62389;51.412;5.436;2023-07-13T09:46:46;5.93;;;2.08;;
74044;SDS011;62389;51.412;5.436;2023-07-13T09:49:17;6.22;;;2.08;;
74044;SDS011;62389;51.412;5.436;2023-07-13T09:51:44;7.50;;;2.17;;
74044;SDS011;62389;51.412;5.436;2023-07-13T09:54:21;7.47;;;2.40;;
74044;SDS011;62389;51.412;5.436;2023-07-13T09:56:53;6.18;;;1.92;;
74044;SDS011;62389;51.412;5.436;2023-07-13T09:59:24;9.13;;;2.65;;
74044;SDS011;62389;51.412;5.436;2023-07-13T10:01:53;7.10;;;2.90;;
74044;SDS011;62389;51.412;5.436;2023-07-13T10:04:19;9.10;;;3.53;;
74044;SDS011;62389;51.412;5.436;2023-07-13T10:06:47;7.47;;;3.13;;
74044;SDS011;62389;51.412;5.436;2023-07-13T10:09:16;6.40;;;2.10;;
74044;SDS011;62389;51.412;5.436;2023-07-13T10:11:43;7.70;;;2.40;;
74044;SDS011;62389;51.412;5.436;2023-07-13T10:16:34;5.20;;;2.13;;
74044;SDS011;62389;51.412;5.436;2023-07-13T10:21:43;6.57;;;2.20;;
74044;SDS011;62389;51.412;5.436;2023-07-13T10:24:21;5.97;;;1.95;;
74044;SDS011;62389;51.412;5.436;2023-07-13T10:29:26;5.50;;;1.80;;
74044;SDS011;62389;51.412;5.436;2023-07-13T10:31:54;5.47;;;2.15;;
74044;SDS011;62389;51.412;5.436;2023-07-13T10:34:22;6.25;;;1.85;;
74044;SDS011;62389;51.412;5.436;2023-07-13T10:36:48;5.97;;;1.80;;
74044;SDS011;62389;51.412;5.436;2023-07-13T10:39:23;6.28;;;1.90;;
74044;SDS011;62389;51.412;5.436;2023-07-13T10:41:53;8.30;;;2.15;;
74044;SDS011;62389;51.412;5.436;2023-07-13T10:44:24;5.82;;;1.70;;
74044;SDS011;62389;51.412;5.436;2023-07-13T10:46:54;7.03;;;2.15;;
74044;SDS011;62389;51.412;5.436;2023-07-13T10:49:23;4.05;;;1.88;;
74044;SDS011;62389;51.412;5.436;2023-07-13T10:51:51;7.65;;;2.88;;
74044;SDS011;62389;51.412;5.436;2023-07-13T10:54:21;4.97;;;1.92;;
74044;SDS011;62389;51.412;5.436;2023-07-13T10:59:49;7.57;;;2.20;;
74044;SDS011;62389;51.412;5.436;2023-07-13T11:02:39;8.32;;;2.20;;
74044;SDS011;62389;51.412;5.436;2023-07-13T11:08:55;4.82;;;1.77;;
74044;SDS011;62389;51.412;5.436;2023-07-13T11:11:01;4.68;;;2.20;;
74044;SDS011;62389;51.412;5.436;2023-07-13T11:16:01;5.03;;;1.85;;
74044;SDS011;62389;51.412;5.436;2023-07-13T11:18:38;6.15;;;2.00;;
74044;SDS011;62389;51.412;5.436;2023-07-13T11:21:14;4.95;;;1.83;;
74044;SDS011;62389;51.412;5.436;2023-07-13T11:23:54;5.80;;;2.10;;
74044;SDS011;62389;51.412;5.436;2023-07-13T11:26:42;5.22;;;2.28;;
74044;SDS011;62389;51.412;5.436;2023-07-13T11:31:42;7.70;;;2.00;;
74044;SDS011;62389;51.412;5.436;2023-07-13T11:34:25;3.80;;;1.77;;
74044;SDS011;62389;51.412;5.436;2023-07-13T11:36:54;6.07;;;2.28;;
74044;SDS011;62389;51.412;5.436;2023-07-13T11:41:55;5.50;;;2.10;;
74044;SDS011;62389;51.412;5.436;2023-07-13T11:44:23;6.03;;;2.20;;
74044;SDS011;62389;51.412;5.436;2023-07-13T11:46:54;3.92;;;1.83;;
74044;SDS011;62389;51.412;5.436;2023-07-13T11:49:28;4.85;;;1.67;;
74044;SDS011;62389;51.412;5.436;2023-07-13T11:51:55;6.38;;;2.05;;
74044;SDS011;62389;51.412;5.436;2023-07-13T11:56:52;4.05;;;1.83;;
74044;SDS011;62389;51.412;5.436;2023-07-13T11:59:19;8.68;;;2.22;;
74044;SDS011;62389;51.412;5.436;2023-07-13T12:01:47;4.55;;;1.58;;
74044;SDS011;62389;51.412;5.436;2023-07-13T12:04:21;7.72;;;1.90;;
74044;SDS011;62389;51.412;5.436;2023-07-13T12:06:54;3.80;;;1.75;;
74044;SDS011;62389;51.412;5.436;2023-07-13T12:09:20;7.47;;;2.42;;
74044;SDS011;62389;51.412;5.436;2023-07-13T12:11:50;7.88;;;2.38;;
74044;SDS011;62389;51.412;5.436;2023-07-13T12:14:16;7.07;;;1.90;;
74044;SDS011;62389;51.412;5.436;2023-07-13T12:16:43;6.00;;;1.90;;
74044;SDS011;62389;51.412;5.436;2023-07-13T12:19:20;6.25;;;2.17;;
74044;SDS011;62389;51.412;5.436;2023-07-13T12:21:47;4.43;;;1.67;;
74044;SDS011;62389;51.412;5.436;2023-07-13T12:24:17;4.22;;;1.83;;
74044;SDS011;62389;51.412;5.436;2023-07-13T12:26:44;6.57;;;2.83;;
74044;SDS011;62389;51.412;5.436;2023-07-13T12:29:16;7.72;;;2.45;;
74044;SDS011;62389;51.412;5.436;2023-07-13T12:31:43;3.97;;;2.05;;
74044;SDS011;62389;51.412;5.436;2023-07-13T12:37:13;5.18;;;1.88;;
74044;SDS011;62389;51.412;5.436;2023-07-13T12:39:37;6.78;;;1.67;;
74044;SDS011;62389;51.412;5.436;2023-07-13T12:42:31;8.05;;;1.80;;
74044;SDS011;62389;51.412;5.436;2023-07-13T12:47:41;10.45;;;1.90;;
74044;SDS011;62389;51.412;5.436;2023-07-13T12:50:18;4.65;;;1.92;;
74044;SDS011;62389;51.412;5.436;2023-07-13T12:52:49;5.65;;;2.05;;
74044;SDS011;62389;51.412;5.436;2023-07-13T12:55:17;6.55;;;1.58;;
74044;SDS011;62389;51.412;5.436;2023-07-13T12:57:49;4.10;;;1.60;;
74044;SDS011;62389;51.412;5.436;2023-07-13T13:00:24;4.28;;;1.73;;
74044;SDS011;62389;51.412;5.436;2023-07-13T13:03:00;3.35;;;1.70;;
74044;SDS011;62389;51.412;5.436;2023-07-13T13:05:28;8.77;;;2.25;;
74044;SDS011;62389;51.412;5.436;2023-07-13T13:07:55;5.50;;;2.35;;
74044;SDS011;62389;51.412;5.436;2023-07-13T13:10:21;7.32;;;2.35;;
74044;SDS011;62389;51.412;5.436;2023-07-13T13:12:46;4.45;;;1.88;;
74044;SDS011;62389;51.412;5.436;2023-07-13T13:15:12;7.43;;;3.40;;
74044;SDS011;62389;51.412;5.436;2023-07-13T13:17:38;6.93;;;2.92;;
74044;SDS011;62389;51.412;5.436;2023-07-13T13:20:26;11.10;;;3.75;;
74044;SDS011;62389;51.412;5.436;2023-07-13T13:22:53;5.95;;;3.33;;
74044;SDS011;62389;51.412;5.436;2023-07-13T13:25:18;5.25;;;2.92;;
74044;SDS011;62389;51.412;5.436;2023-07-13T13:27:44;7.68;;;3.15;;
74044;SDS011;62389;51.412;5.436;2023-07-13T13:30:11;5.55;;;3.03;;
74044;SDS011;62389;51.412;5.436;2023-07-13T13:32:42;7.30;;;2.90;;
74044;SDS011;62389;51.412;5.436;2023-07-13T13:35:15;5.93;;;2.90;;
74044;SDS011;62389;51.412;5.436;2023-07-13T13:37:42;6.88;;;3.20;;
74044;SDS011;62389;51.412;5.436;2023-07-13T13:40:26;7.03;;;3.15;;
74044;SDS011;62389;51.412;5.436;2023-07-13T13:42:52;5.68;;;3.08;;
74044;SDS011;62389;51.412;5.436;2023-07-13T13:45:20;5.05;;;2.78;;
74044;SDS011;62389;51.412;5.436;2023-07-13T13:47:46;6.57;;;2.42;;
74044;SDS011;62389;51.412;5.436;2023-07-13T13:50:14;4.45;;;2.70;;
74044;SDS011;62389;51.412;5.436;2023-07-13T13:52:42;5.32;;;2.97;;
74044;SDS011;62389;51.412;5.436;2023-07-13T13:55:11;5.07;;;2.40;;
74044;SDS011;62389;51.412;5.436;2023-07-13T13:57:40;5.90;;;2.45;;
74044;SDS011;62389;51.412;5.436;2023-07-13T14:00:08;4.53;;;2.55;;
74044;SDS011;62389;51.412;5.436;2023-07-13T14:02:36;6.13;;;2.67;;
74044;SDS011;62389;51.412;5.436;2023-07-13T14:05:02;7.30;;;2.50;;
74044;SDS011;62389;51.412;5.436;2023-07-13T14:07:28;6.30;;;2.20;;
74044;SDS011;62389;51.412;5.436;2023-07-13T14:12:24;4.60;;;2.17;;
74044;SDS011;62389;51.412;5.436;2023-07-13T14:14:53;5.20;;;1.83;;
74044;SDS011;62389;51.412;5.436;2023-07-13T14:17:22;5.47;;;2.40;;
74044;SDS011;62389;51.412;5.436;2023-07-13T14:19:50;5.50;;;1.65;;
74044;SDS011;62389;51.412;5.436;2023-07-13T14:24:42;3.17;;;1.73;;
74044;SDS011;62389;51.412;5.436;2023-07-13T14:27:09;4.32;;;2.15;;
74044;SDS011;62389;51.412;5.436;2023-07-13T14:29:35;3.13;;;1.52;;
74044;SDS011;62389;51.412;5.436;2023-07-13T14:32:01;3.25;;;1.52;;
74044;SDS011;62389;51.412;5.436;2023-07-13T14:34:27;4.80;;;1.60;;
74044;SDS011;62389;51.412;5.436;2023-07-13T14:36:53;3.78;;;2.10;;
74044;SDS011;62389;51.412;5.436;2023-07-13T14:39:19;2.70;;;1.60;;
74044;SDS011;62389;51.412;5.436;2023-07-13T14:41:49;3.10;;;1.50;;
74044;SDS011;62389;51.412;5.436;2023-07-13T14:44:16;3.65;;;1.50;;
74044;SDS011;62389;51.412;5.436;2023-07-13T14:46:43;3.00;;;1.73;;
74044;SDS011;62389;51.412;5.436;2023-07-13T14:49:21;3.38;;;1.70;;
74044;SDS011;62389;51.412;5.436;2023-07-13T14:51:48;2.58;;;1.52;;
74044;SDS011;62389;51.412;5.436;2023-07-13T14:54:14;3.70;;;1.50;;
74044;SDS011;62389;51.412;5.436;2023-07-13T14:56:39;3.50;;;1.65;;
74044;SDS011;62389;51.412;5.436;2023-07-13T14:59:04;3.95;;;1.70;;
74044;SDS011;62389;51.412;5.436;2023-07-13T15:01:30;3.40;;;1.45;;
74044;SDS011;62389;51.412;5.436;2023-07-13T15:03:56;2.70;;;1.23;;
74044;SDS011;62389;51.412;5.436;2023-07-13T15:06:23;3.67;;;1.70;;
74044;SDS011;62389;51.412;5.436;2023-07-13T15:08:48;3.78;;;1.33;;
74044;SDS011;62389;51.412;5.436;2023-07-13T15:11:14;2.72;;;1.30;;
74044;SDS011;62389;51.412;5.436;2023-07-13T15:13:41;3.38;;;1.02;;
74044;SDS011;62389;51.412;5.436;2023-07-13T15:16:13;4.75;;;1.77;;
74044;SDS011;62389;51.412;5.436;2023-07-13T15:18:51;3.03;;;1.08;;
74044;SDS011;62389;51.412;5.436;2023-07-13T15:21:20;4.30;;;1.35;;
74044;SDS011;62389;51.412;5.436;2023-07-13T15:23:47;3.67;;;1.70;;
74044;SDS011;62389;51.412;5.436;2023-07-13T15:26:13;3.88;;;1.25;;
74044;SDS011;62389;51.412;5.436;2023-07-13T15:28:40;4.07;;;1.58;;
74044;SDS011;62389;51.412;5.436;2023-07-13T15:31:11;4.68;;;1.60;;
74044;SDS011;62389;51.412;5.436;2023-07-13T15:36:20;6.15;;;2.38;;
74044;SDS011;62389;51.412;5.436;2023-07-13T15:38:47;3.95;;;2.10;;
74044;SDS011;62389;51.412;5.436;2023-07-13T15:43:43;5.82;;;2.30;;
74044;SDS011;62389;51.412;5.436;2023-07-13T15:46:09;6.60;;;2.53;;